KSNY/SNY METAR and TAF weather

Enter ICAO airport designator
Station Type Date Time Source
KSNY METAR 2020/03/31 05:53 UTC NOAA

KSNY 310553Z AUTO 24009KT 10SM CLR M01/M02 A3002 RMK AO2 SLP182 T10061022 10122 21022 58002


Station Type Date Time Source
KSNY Decoded METAR 2020/03/31 05:53 UTC NOAA

SIDNEY MUNICIPAL AIRPORT, NE, United States (KSNY) 41-06N 102-59W 1307M
Mar 31, 2020 - 01:53 AM EDT / 2020.03.31 0553 UTC
Wind: from the WSW (240 degrees) at 10 MPH (9 KT):0
Visibility: 10 mile(s):0
Sky conditions: clear
Temperature: 30.9 F (-0.6 C)
Windchill: 23 F (-5 C):1
Dew Point: 28.0 F (-2.2 C)
Relative Humidity: 88%
Pressure (altimeter): 30.02 in. Hg (1016 hPa)
Pressure tendency: 0.01 inches (0.2 hPa) lower than three hours ago
ob: KSNY 310553Z AUTO 24009KT 10SM CLR M01/M02 A3002 RMK AO2 SLP182 T10061022 10122 21022 58002
cycle: 6

Station Type Date Time Source
KSNY TAF 2020/03/31 06:36 UTC NOAA

TAF KSNY 310530Z 3106/0106 25010KT P6SM SCT150
FM311800 23016G24KT P6SM FEW250
FM010000 26011KT P6SM OVC250

Example: see airport list